createdAt,value
2023-04-28T00:00:54.995Z,99562.31
2023-04-28T00:03:22.682Z,99562.53
2023-04-28T00:05:50.544Z,99565.28
2023-04-28T00:08:21.682Z,99567.81
2023-04-28T00:10:49.452Z,99562.75
2023-04-28T00:13:17.091Z,99556.75
2023-04-28T00:15:44.667Z,99555.38
2023-04-28T00:18:12.595Z,99545.19
2023-04-28T00:20:40.326Z,99545.13
2023-04-28T00:23:07.947Z,99524.59
2023-04-28T00:25:36.949Z,99518.00
2023-04-28T00:28:04.823Z,99514.84
2023-04-28T00:30:32.444Z,99505.59
2023-04-28T00:33:00.209Z,99508.44
2023-04-28T00:35:27.898Z,99516.00
2023-04-28T00:37:55.479Z,99511.66
2023-04-28T00:40:23.180Z,99510.06
2023-04-28T00:42:52.124Z,99503.31
2023-04-28T00:45:19.852Z,99502.13
2023-04-28T00:47:47.511Z,99499.47
2023-04-28T00:50:15.205Z,99492.03
2023-04-28T00:52:44.420Z,99488.72
2023-04-28T00:55:12.835Z,99494.38
2023-04-28T00:57:40.555Z,99484.09
2023-04-28T01:00:11.003Z,99481.44
2023-04-28T01:02:39.022Z,99477.69
2023-04-28T01:05:07.748Z,99469.88
2023-04-28T01:07:35.800Z,99467.72
2023-04-28T01:10:04.117Z,99473.00
2023-04-28T01:12:32.062Z,99467.91
2023-04-28T01:15:00.675Z,99467.91
2023-04-28T01:17:29.887Z,99475.31
2023-04-28T01:19:57.528Z,99472.50
2023-04-28T01:22:25.169Z,99467.09
2023-04-28T01:24:54.234Z,99464.91
2023-04-28T01:27:23.380Z,99465.72
2023-04-28T01:29:51.016Z,99462.75
2023-04-28T01:32:18.897Z,99460.09
2023-04-28T01:34:47.561Z,99457.63
2023-04-28T01:37:15.668Z,99465.09
2023-04-28T01:39:43.262Z,99456.50
2023-04-28T01:42:12.247Z,99462.47
2023-04-28T01:44:40.154Z,99469.41
2023-04-28T01:47:07.802Z,99464.56
2023-04-28T01:49:35.538Z,99472.69
2023-04-28T01:52:03.258Z,99476.31
2023-04-28T01:54:30.988Z,99468.78
2023-04-28T01:56:58.599Z,99464.16
2023-04-28T01:59:27.538Z,99467.09
2023-04-28T02:01:55.420Z,99457.19
2023-04-28T02:04:23.334Z,99452.16
2023-04-28T02:06:51.666Z,99448.38
2023-04-28T02:09:19.585Z,99443.56
2023-04-28T02:11:47.223Z,99446.66
2023-04-28T02:14:15.003Z,99455.13
2023-04-28T02:16:44.328Z,99457.44
2023-04-28T02:19:11.944Z,99460.44
2023-04-28T02:21:39.648Z,99450.06
2023-04-28T02:24:08.543Z,99456.81
2023-04-28T02:26:36.476Z,99465.75
2023-04-28T02:29:04.699Z,99461.09
2023-04-28T02:31:33.164Z,99453.72
2023-04-28T02:34:02.695Z,99450.78
2023-04-28T02:36:30.363Z,99451.97
2023-04-28T02:38:58.028Z,99447.78
2023-04-28T02:41:26.381Z,99441.56
2023-04-28T02:43:53.949Z,99442.03
2023-04-28T02:46:21.609Z,99439.56
2023-04-28T02:48:49.484Z,99435.91
2023-04-28T02:51:18.426Z,99425.69
2023-04-28T02:53:46.826Z,99419.56
2023-04-28T02:56:14.606Z,99423.38
2023-04-28T02:58:42.222Z,99421.13
2023-04-28T03:01:09.979Z,99427.19
2023-04-28T03:03:37.714Z,99416.44
2023-04-28T03:06:06.351Z,99407.34
2023-04-28T03:08:35.613Z,99398.44
2023-04-28T03:11:03.272Z,99399.09
2023-04-28T03:13:31.659Z,99394.84
2023-04-28T03:15:59.427Z,99388.72
2023-04-28T03:18:27.108Z,99379.50
2023-04-28T03:20:54.767Z,99386.47
2023-04-28T03:23:22.487Z,99392.84
2023-04-28T03:25:51.530Z,99387.22
2023-04-28T03:28:19.509Z,99390.75
2023-04-28T03:30:47.134Z,99384.91
2023-04-28T03:33:14.763Z,99381.38
2023-04-28T03:35:42.409Z,99375.19
2023-04-28T03:38:10.062Z,99377.19
2023-04-28T03:40:38.010Z,99388.13
2023-04-28T03:43:07.364Z,99388.88
2023-04-28T03:45:35.790Z,99397.09
2023-04-28T03:48:03.478Z,99383.53
2023-04-28T03:50:31.263Z,99374.97
2023-04-28T03:52:58.860Z,99369.22
2023-04-28T03:55:27.050Z,99363.59
2023-04-28T03:57:54.757Z,99359.22
2023-04-28T04:00:23.772Z,99349.78
2023-04-28T04:02:51.537Z,99359.94
2023-04-28T04:05:19.446Z,99357.84
2023-04-28T04:07:47.232Z,99359.59
2023-04-28T04:10:14.851Z,99353.47
2023-04-28T04:12:42.433Z,99357.41
2023-04-28T04:15:11.079Z,99363.00
2023-04-28T04:17:40.337Z,99355.59
2023-04-28T04:20:09.321Z,99346.38
2023-04-28T04:22:36.991Z,99348.66
2023-04-28T04:25:05.292Z,99351.13
2023-04-28T04:27:33.176Z,99354.47
2023-04-28T04:30:00.844Z,99346.69
2023-04-28T04:32:28.500Z,99347.69
2023-04-28T04:34:57.566Z,99344.13
2023-04-28T04:37:25.373Z,99344.50
2023-04-28T04:39:53.079Z,99347.00
2023-04-28T04:42:25.487Z,99344.34
2023-04-28T04:44:53.962Z,99351.72
2023-04-28T04:47:21.643Z,99341.03
2023-04-28T04:49:49.843Z,99340.44
2023-04-28T04:52:19.731Z,99346.25
2023-04-28T04:54:47.378Z,99336.13
2023-04-28T04:57:15.066Z,99333.22
2023-04-28T04:59:42.671Z,99338.13
2023-04-28T05:02:10.916Z,99347.09
2023-04-28T05:04:38.844Z,99349.56
2023-04-28T05:07:06.709Z,99349.94
2023-04-28T05:09:35.894Z,99354.84
2023-04-28T05:12:03.971Z,99352.03
2023-04-28T05:14:31.643Z,99355.25
2023-04-28T05:16:59.474Z,99356.41
2023-04-28T05:19:27.220Z,99342.06
2023-04-28T05:21:55.046Z,99339.78
2023-04-28T05:24:23.537Z,99340.13
2023-04-28T05:26:53.978Z,99332.66
2023-04-28T05:29:21.829Z,99332.47
2023-04-28T05:31:49.747Z,99326.16
2023-04-28T05:34:17.798Z,99327.19
2023-04-28T05:36:48.664Z,99330.44
2023-04-28T05:39:16.698Z,99329.63
2023-04-28T05:41:44.485Z,99325.78
2023-04-28T05:44:13.841Z,99336.00
2023-04-28T05:46:41.725Z,99339.06
2023-04-28T05:49:11.506Z,99332.84
2023-04-28T05:51:39.579Z,99329.19
2023-04-28T05:54:07.268Z,99336.88
2023-04-28T05:56:34.891Z,99349.59
2023-04-28T05:59:04.250Z,99361.31
2023-04-28T06:01:33.696Z,99369.63
2023-04-28T06:04:01.661Z,99372.94
2023-04-28T06:06:29.593Z,99344.44
2023-04-28T06:08:57.507Z,99341.69
2023-04-28T06:11:25.117Z,99347.53
2023-04-28T06:13:52.941Z,99348.09
2023-04-28T06:16:21.537Z,99344.50
2023-04-28T06:18:50.945Z,99344.50
2023-04-28T06:21:18.790Z,99344.50
2023-04-28T06:23:46.530Z,99335.34
2023-04-28T06:26:16.194Z,99322.59
2023-04-28T06:28:45.307Z,99329.47
2023-04-28T06:31:12.942Z,99339.69
2023-04-28T06:33:40.873Z,99344.25
2023-04-28T06:36:13.885Z,99337.94
2023-04-28T06:38:42.921Z,99335.78
2023-04-28T06:41:11.365Z,99335.47
2023-04-28T06:43:39.421Z,99348.78
2023-04-28T06:46:07.460Z,99360.06
2023-04-28T06:48:35.321Z,99354.84
2023-04-28T06:51:03.528Z,99347.53
2023-04-28T06:53:32.455Z,99339.94
2023-04-28T06:56:00.178Z,99344.38
2023-04-28T06:58:27.996Z,99333.69
2023-04-28T07:00:55.732Z,99336.91
2023-04-28T07:03:23.523Z,99326.63
2023-04-28T07:05:51.555Z,99326.94
2023-04-28T07:08:19.229Z,99335.66
2023-04-28T07:10:48.455Z,99345.19
2023-04-28T07:13:16.350Z,99342.22
2023-04-28T07:15:44.027Z,99336.94
2023-04-28T07:18:11.774Z,99326.88
2023-04-28T07:20:39.501Z,99318.78
2023-04-28T07:23:07.195Z,99326.13
2023-04-28T07:25:35.209Z,99337.31
2023-04-28T07:28:06.316Z,99330.63
2023-04-28T07:30:34.474Z,99326.13
2023-04-28T07:33:02.520Z,99320.84
2023-04-28T07:35:30.241Z,99325.81
2023-04-28T07:37:58.214Z,99325.75
2023-04-28T07:40:25.983Z,99328.06
2023-04-28T07:42:54.287Z,99324.97
2023-04-28T07:45:23.394Z,99315.78
2023-04-28T07:47:51.357Z,99308.19
2023-04-28T07:50:19.168Z,99312.13
2023-04-28T07:52:46.854Z,99306.22
2023-04-28T07:55:14.615Z,99300.88
2023-04-28T07:57:42.514Z,99305.31
2023-04-28T08:00:11.506Z,99292.31
2023-04-28T08:02:40.830Z,99283.88
2023-04-28T08:05:09.547Z,99289.88
2023-04-28T08:07:38.386Z,99295.63
2023-04-28T08:10:06.806Z,99298.69
2023-04-28T08:12:34.522Z,99288.88
2023-04-28T08:15:02.724Z,99298.69
2023-04-28T08:17:31.035Z,99311.59
2023-04-28T08:20:00.218Z,99320.41
2023-04-28T08:22:28.167Z,99317.97
2023-04-28T08:24:56.012Z,99327.59
2023-04-28T08:27:25.647Z,99317.75
2023-04-28T08:29:53.835Z,99320.22
2023-04-28T08:32:21.531Z,99315.28
2023-04-28T08:34:49.125Z,99320.66
2023-04-28T08:37:18.561Z,99318.38
2023-04-28T08:39:46.444Z,99329.84
2023-04-28T08:42:14.755Z,99322.06
2023-04-28T08:44:42.395Z,99326.78
2023-04-28T08:47:13.762Z,99323.88
2023-04-28T08:49:42.399Z,99325.13
2023-04-28T08:52:12.568Z,99321.84
2023-04-28T08:54:42.085Z,99327.00
2023-04-28T08:57:11.016Z,99329.03
2023-04-28T08:59:42.500Z,99325.34
2023-04-28T09:02:10.897Z,99335.38
2023-04-28T09:04:39.352Z,99326.34
2023-04-28T09:07:12.312Z,99331.84
2023-04-28T09:09:41.750Z,99336.31
2023-04-28T09:12:09.575Z,99342.19
2023-04-28T09:14:38.807Z,99332.34
2023-04-28T09:17:11.954Z,99338.66
2023-04-28T09:19:42.928Z,99334.91
2023-04-28T09:22:25.746Z,99344.94
2023-04-28T09:24:56.201Z,99343.72
2023-04-28T09:27:28.956Z,99336.72
2023-04-28T09:29:56.825Z,99332.66
2023-04-28T09:32:27.602Z,99338.38
2023-04-28T09:34:57.422Z,99346.16
2023-04-28T09:37:27.314Z,99338.94
2023-04-28T09:39:56.590Z,99345.03
2023-04-28T09:42:34.933Z,99343.47
2023-04-28T09:45:04.636Z,99339.16
2023-04-28T09:47:35.051Z,99341.78
2023-04-28T09:50:04.516Z,99351.28
2023-04-28T09:52:33.253Z,99346.38
2023-04-28T09:55:03.707Z,99344.53
2023-04-28T09:57:33.478Z,99338.75
2023-04-28T10:00:02.696Z,99342.25
2023-04-28T10:05:02.253Z,99352.28
2023-04-28T10:07:30.957Z,99351.22
2023-04-28T10:09:59.540Z,99345.47
2023-04-28T10:12:29.102Z,99351.34
2023-04-28T10:14:57.220Z,99363.84
2023-04-28T10:17:27.453Z,99356.88
2023-04-28T10:19:55.855Z,99361.50
2023-04-28T10:22:45.403Z,99362.75
2023-04-28T10:25:27.879Z,99359.88
2023-04-28T10:27:58.573Z,99350.16
2023-04-28T10:30:29.587Z,99348.25
2023-04-28T10:33:26.489Z,99349.44
2023-04-28T10:35:55.080Z,99345.59
2023-04-28T10:38:22.889Z,99347.16
2023-04-28T10:40:52.297Z,99345.22
2023-04-28T10:43:39.611Z,99334.44
2023-04-28T10:46:11.831Z,99342.41
2023-04-28T10:49:07.694Z,99345.22
2023-04-28T10:51:36.140Z,99339.56
2023-04-28T10:54:20.510Z,99340.81
2023-04-28T10:57:17.447Z,99338.06
2023-04-28T10:59:46.744Z,99337.16
2023-04-28T11:02:39.015Z,99334.25
2023-04-28T11:05:13.177Z,99326.94
2023-04-28T11:07:41.050Z,99324.03
2023-04-28T11:10:09.780Z,99317.72
2023-04-28T11:12:37.459Z,99323.19
2023-04-28T11:15:15.053Z,99327.44
2023-04-28T11:17:43.510Z,99327.91
2023-04-28T11:20:14.529Z,99334.13
2023-04-28T11:22:42.874Z,99347.72
2023-04-28T11:25:10.922Z,99320.84
2023-04-28T11:27:38.710Z,99325.44
2023-04-28T11:30:22.247Z,99328.81
2023-04-28T11:32:51.641Z,99334.16
2023-04-28T11:35:19.449Z,99336.44
2023-04-28T11:37:47.228Z,99335.91
2023-04-28T11:40:16.512Z,99335.53
2023-04-28T11:42:48.866Z,99323.69
2023-04-28T11:45:18.200Z,99321.69
2023-04-28T11:47:45.965Z,99325.56
2023-04-28T11:50:15.710Z,99327.75
2023-04-28T11:52:53.757Z,99339.13
2023-04-28T11:55:21.874Z,99340.03
2023-04-28T11:57:49.738Z,99342.50
2023-04-28T12:00:22.399Z,99346.69
2023-04-28T12:02:50.980Z,99345.72
2023-04-28T12:05:20.789Z,99344.72
2023-04-28T12:07:48.551Z,99341.88
2023-04-28T12:10:17.668Z,99342.59
2023-04-28T12:12:51.781Z,99331.91
2023-04-28T12:15:24.749Z,99335.09
2023-04-28T12:17:52.696Z,99333.00
2023-04-28T12:20:37.459Z,99326.09
2023-04-28T12:23:05.822Z,99330.13
2023-04-28T12:25:35.296Z,99320.31
2023-04-28T12:28:04.995Z,99327.59
2023-04-28T12:30:36.144Z,99328.47
2023-04-28T12:33:04.305Z,99334.06
2023-04-28T12:35:33.297Z,99332.66
2023-04-28T12:38:01.136Z,99336.88
2023-04-28T12:40:29.033Z,99335.31
2023-04-28T12:42:56.881Z,99335.19
2023-04-28T12:45:24.764Z,99334.78
2023-04-28T12:47:53.814Z,99333.56
2023-04-28T12:50:21.744Z,99336.03
2023-04-28T12:52:49.528Z,99326.41
2023-04-28T12:55:17.476Z,99318.88
2023-04-28T12:57:45.257Z,99327.84
2023-04-28T13:00:16.289Z,99333.88
2023-04-28T13:02:44.277Z,99322.09
2023-04-28T13:05:14.359Z,99317.78
2023-04-28T13:07:42.156Z,99322.91
2023-04-28T13:10:10.740Z,99320.66
2023-04-28T13:12:38.430Z,99322.88
2023-04-28T13:15:07.529Z,99336.53
2023-04-28T13:17:35.665Z,99322.59
2023-04-28T13:20:05.138Z,99314.28
2023-04-28T13:22:34.322Z,99306.28
2023-04-28T13:25:02.083Z,99303.56
2023-04-28T13:27:30.782Z,99302.53
2023-04-28T13:29:59.193Z,99297.28
2023-04-28T13:32:27.905Z,99293.31
2023-04-28T13:34:55.709Z,99297.41
2023-04-28T13:37:23.425Z,99285.84
2023-04-28T13:39:52.470Z,99278.31
2023-04-28T13:42:20.183Z,99281.81
2023-04-28T13:44:49.237Z,99269.84
2023-04-28T13:47:17.019Z,99251.81
2023-04-28T13:49:44.696Z,99244.50
2023-04-28T13:52:12.339Z,99250.84
2023-04-28T13:54:40.324Z,99240.03
2023-04-28T13:57:09.506Z,99237.72
2023-04-28T13:59:37.283Z,99236.28
2023-04-28T14:02:05.141Z,99264.34
2023-04-28T14:04:33.086Z,99274.06
2023-04-28T14:07:01.393Z,99267.28
2023-04-28T14:09:29.376Z,99263.56
2023-04-28T14:11:58.375Z,99255.53
2023-04-28T14:14:27.420Z,99235.84
2023-04-28T14:16:55.197Z,99245.84
2023-04-28T14:19:24.253Z,99250.69
2023-04-28T14:21:52.149Z,99255.09
2023-04-28T14:24:20.200Z,99265.00
2023-04-28T14:26:49.510Z,99273.91
2023-04-28T14:29:17.279Z,99273.06
2023-04-28T14:31:46.535Z,99276.78
2023-04-28T14:34:14.336Z,99265.88
2023-04-28T14:36:42.311Z,99258.59
2023-04-28T14:39:09.987Z,99265.63
2023-04-28T14:41:37.857Z,99273.84
2023-04-28T14:44:06.194Z,99277.59
2023-04-28T14:46:34.017Z,99270.84
2023-04-28T14:49:03.774Z,99275.31
2023-04-28T14:51:31.689Z,99256.25
2023-04-28T14:53:59.478Z,99258.88
2023-04-28T14:56:27.648Z,99246.88
2023-04-28T14:58:55.305Z,99241.25
2023-04-28T15:01:23.223Z,99247.91
2023-04-28T15:03:51.167Z,99247.88
2023-04-28T15:06:20.320Z,99248.00
2023-04-28T15:08:47.948Z,99245.56
2023-04-28T15:11:15.697Z,99245.50
2023-04-28T15:13:43.390Z,99240.94
2023-04-28T15:16:11.267Z,99233.22
2023-04-28T15:18:39.343Z,99234.81
2023-04-28T15:21:07.463Z,99219.38
2023-04-28T15:23:36.736Z,99225.41
2023-04-28T15:26:04.966Z,99233.19
2023-04-28T15:28:33.204Z,99223.75
2023-04-28T15:31:01.312Z,99216.31
2023-04-28T15:33:29.112Z,99223.56
2023-04-28T15:35:56.777Z,99226.81
2023-04-28T15:38:24.433Z,99233.38
2023-04-28T15:40:53.461Z,99238.00
2023-04-28T15:43:21.496Z,99229.28
2023-04-28T15:45:49.297Z,99221.28
2023-04-28T15:48:16.918Z,99214.94
2023-04-28T15:50:44.883Z,99217.84
2023-04-28T15:53:12.485Z,99215.84
2023-04-28T15:55:40.135Z,99216.72
2023-04-28T15:58:10.859Z,99210.78
2023-04-28T16:00:40.537Z,99204.59
2023-04-28T16:03:08.301Z,99198.94
2023-04-28T16:05:36.220Z,99200.13
2023-04-28T16:08:04.080Z,99197.50
2023-04-28T16:10:31.872Z,99190.91
2023-04-28T16:12:59.545Z,99188.22
2023-04-28T16:15:28.524Z,99189.03
2023-04-28T16:17:56.870Z,99185.22
2023-04-28T16:20:24.732Z,99182.25
2023-04-28T16:22:53.235Z,99186.44
2023-04-28T16:25:20.969Z,99187.88
2023-04-28T16:27:48.716Z,99193.19
2023-04-28T16:30:16.354Z,99186.00
2023-04-28T16:32:46.944Z,99194.13
2023-04-28T16:35:15.484Z,99189.69
2023-04-28T16:37:44.045Z,99204.28
2023-04-28T16:40:13.209Z,99186.91
2023-04-28T16:42:42.019Z,99196.53
2023-04-28T16:45:11.024Z,99189.72
2023-04-28T16:47:42.409Z,99204.50
2023-04-28T16:50:14.448Z,99198.16
2023-04-28T16:52:42.251Z,99205.59
2023-04-28T16:55:10.933Z,99197.06
2023-04-28T16:57:38.572Z,99198.72
2023-04-28T17:00:07.772Z,99203.50
2023-04-28T17:02:35.601Z,99194.91
2023-04-28T17:05:03.447Z,99201.78
2023-04-28T17:07:32.480Z,99202.41
2023-04-28T17:10:00.711Z,99205.63
2023-04-28T17:12:28.528Z,99198.56
2023-04-28T17:14:56.380Z,99201.34
2023-04-28T17:17:24.118Z,99205.22
2023-04-28T17:19:52.127Z,99195.13
2023-04-28T17:22:19.840Z,99194.63
2023-04-28T17:24:48.907Z,99198.88
2023-04-28T17:27:17.237Z,99199.56
2023-04-28T17:29:44.933Z,99209.91
2023-04-28T17:32:14.881Z,99208.66
2023-04-28T17:34:42.750Z,99205.84
2023-04-28T17:37:37.165Z,99201.81
2023-04-28T17:40:08.065Z,99199.56
2023-04-28T17:42:35.869Z,99195.00
2023-04-28T17:45:04.591Z,99194.34
2023-04-28T17:47:32.464Z,99190.25
2023-04-28T17:50:00.589Z,99199.50
2023-04-28T17:52:28.308Z,99197.03
2023-04-28T17:54:57.336Z,99202.06
2023-04-28T17:57:26.471Z,99200.31
2023-04-28T17:59:54.322Z,99204.28
2023-04-28T18:02:22.093Z,99201.00
2023-04-28T18:04:50.899Z,99202.63
2023-04-28T18:07:19.305Z,99201.41
2023-04-28T18:09:47.055Z,99214.34
2023-04-28T18:12:14.891Z,99222.88
2023-04-28T18:14:44.346Z,99226.41
2023-04-28T18:17:12.282Z,99226.63
2023-04-28T18:19:40.316Z,99228.94
2023-04-28T18:22:08.269Z,99238.06
2023-04-28T18:24:36.298Z,99236.25
2023-04-28T18:27:05.263Z,99240.56
2023-04-28T18:29:32.994Z,99243.88
2023-04-28T18:32:02.218Z,99244.38
2023-04-28T18:34:30.234Z,99253.69
2023-04-28T18:36:58.052Z,99255.41
2023-04-28T18:39:25.849Z,99267.59
2023-04-28T18:41:53.616Z,99263.41
2023-04-28T18:44:21.381Z,99265.19
2023-04-28T18:46:51.900Z,99259.00
2023-04-28T18:49:21.680Z,99255.84
2023-04-28T18:51:49.481Z,99262.44
2023-04-28T18:54:17.396Z,99268.09
2023-04-28T18:56:45.460Z,99269.25
2023-04-28T18:59:13.717Z,99277.22
2023-04-28T19:01:41.424Z,99275.09
2023-04-28T19:04:09.425Z,99271.50
2023-04-28T19:06:39.049Z,99276.25
2023-04-28T19:09:07.189Z,99283.50
2023-04-28T19:11:34.958Z,99286.06
2023-04-28T19:14:02.827Z,99290.63
2023-04-28T19:16:30.639Z,99297.31
2023-04-28T19:18:58.411Z,99293.25
2023-04-28T19:21:26.713Z,99302.06
2023-04-28T19:23:55.840Z,99302.31
2023-04-28T19:26:24.140Z,99307.88
2023-04-28T19:28:52.000Z,99298.06
2023-04-28T19:31:19.855Z,99303.19
2023-04-28T19:33:47.618Z,99314.69
2023-04-28T19:36:15.352Z,99316.16
2023-04-28T19:38:43.158Z,99315.38
2023-04-28T19:41:12.255Z,99320.94
2023-04-28T19:43:40.697Z,99324.03
2023-04-28T19:46:09.021Z,99329.56
2023-04-28T19:48:36.893Z,99326.75
2023-04-28T19:51:04.929Z,99339.88
2023-04-28T19:53:33.864Z,99338.84
2023-04-28T19:56:02.098Z,99330.66
2023-04-28T19:58:31.699Z,99343.16
2023-04-28T20:00:59.423Z,99339.06
2023-04-28T20:03:27.324Z,99346.03
2023-04-28T20:05:55.454Z,99341.72
2023-04-28T20:08:25.568Z,99342.34
2023-04-28T20:10:54.829Z,99339.88
2023-04-28T20:13:22.656Z,99346.84
2023-04-28T20:15:51.880Z,99351.56
2023-04-28T20:18:19.890Z,99353.84
2023-04-28T20:20:47.483Z,99352.59
2023-04-28T20:23:15.365Z,99356.09
2023-04-28T20:25:42.982Z,99349.13
2023-04-28T20:28:10.653Z,99351.38
2023-04-28T20:30:38.605Z,99353.03
2023-04-28T20:33:07.774Z,99350.94
2023-04-28T20:35:35.479Z,99354.81
2023-04-28T20:38:03.290Z,99360.59
2023-04-28T20:40:30.922Z,99359.13
2023-04-28T20:43:01.626Z,99359.53
2023-04-28T20:45:29.796Z,99361.56
2023-04-28T20:47:57.605Z,99355.84
2023-04-28T20:50:28.314Z,99356.66
2023-04-28T20:52:55.969Z,99359.91
2023-04-28T20:55:23.731Z,99358.47
2023-04-28T20:57:51.562Z,99359.31
2023-04-28T21:00:19.224Z,99355.00
2023-04-28T21:02:47.119Z,99357.84
2023-04-28T21:05:15.430Z,99357.00
2023-04-28T21:07:44.680Z,99360.69
2023-04-28T21:10:12.878Z,99369.47
2023-04-28T21:12:41.393Z,99363.56
2023-04-28T21:15:09.994Z,99369.09
2023-04-28T21:17:37.660Z,99373.22
2023-04-28T21:20:06.411Z,99378.13
2023-04-28T21:22:34.596Z,99373.63
2023-04-28T21:25:03.861Z,99379.78
2023-04-28T21:27:31.477Z,99383.88
2023-04-28T21:29:59.260Z,99384.13
2023-04-28T21:32:26.932Z,99381.25
2023-04-28T21:34:54.831Z,99382.25
2023-04-28T21:37:22.495Z,99381.69
2023-04-28T21:39:50.582Z,99388.63
2023-04-28T21:42:19.685Z,99395.38
2023-04-28T21:44:47.520Z,99395.78
2023-04-28T21:47:16.644Z,99398.03
2023-04-28T21:49:44.689Z,99399.03
2023-04-28T21:52:12.367Z,99408.47
2023-04-28T21:54:40.099Z,99418.91
2023-04-28T21:57:08.311Z,99416.88
2023-04-28T21:59:37.328Z,99409.69
2023-04-28T22:02:06.166Z,99410.09
2023-04-28T22:04:34.862Z,99410.72
2023-04-28T22:07:03.792Z,99414.19
2023-04-28T22:09:33.151Z,99418.19
2023-04-28T22:12:00.801Z,99415.56
2023-04-28T22:14:40.666Z,99424.56
2023-04-28T22:17:10.623Z,99420.03
2023-04-28T22:19:38.341Z,99422.50
2023-04-28T22:22:07.811Z,99419.84
2023-04-28T22:24:35.561Z,99420.44
2023-04-28T22:27:03.719Z,99424.50
2023-04-28T22:29:31.351Z,99428.56
2023-04-28T22:31:59.575Z,99429.16
2023-04-28T22:34:28.837Z,99436.69
2023-04-28T22:36:56.996Z,99433.56
2023-04-28T22:39:27.032Z,99431.50
2023-04-28T22:41:54.886Z,99428.41
2023-04-28T22:44:22.516Z,99428.59
2023-04-28T22:46:50.464Z,99433.63
2023-04-28T22:49:20.290Z,99427.81
2023-04-28T22:51:49.306Z,99437.38
2023-04-28T22:54:17.284Z,99429.34
2023-04-28T22:56:44.908Z,99434.63
2023-04-28T22:59:12.772Z,99435.44
2023-04-28T23:01:40.676Z,99440.16
2023-04-28T23:04:08.486Z,99446.31
2023-04-28T23:06:36.802Z,99454.72
2023-04-28T23:09:05.844Z,99449.00
2023-04-28T23:11:33.481Z,99448.28
2023-04-28T23:14:01.457Z,99444.03
2023-04-28T23:16:29.114Z,99441.78
2023-04-28T23:18:56.900Z,99432.94
2023-04-28T23:21:24.580Z,99437.59
2023-04-28T23:23:52.678Z,99433.66
2023-04-28T23:26:21.820Z,99440.28
2023-04-28T23:28:49.576Z,99438.97
2023-04-28T23:31:17.425Z,99440.63
2023-04-28T23:33:45.152Z,99443.59
2023-04-28T23:36:13.691Z,99443.66
2023-04-28T23:38:41.713Z,99445.06
2023-04-28T23:41:09.360Z,99443.97
2023-04-28T23:43:38.422Z,99445.28
2023-04-28T23:46:06.687Z,99449.59
2023-04-28T23:48:34.857Z,99444.88
2023-04-28T23:51:02.557Z,99445.50
2023-04-28T23:53:30.263Z,99442.78
2023-04-28T23:55:57.901Z,99441.13
2023-04-28T23:58:25.645Z,99442.72
